Time;durP1;ratioP1;P1;durP2;ratioP2;P2;SDS_P1;SDS_P2;PMS_P1;PMS_P2;Temp;Humidity;BMP_temperature;BMP_pressure;BME280_temperature;BME280_humidity;BME280_pressure;Samples;Min_cycle;Max_cycle;Signal;HPM_P1;HPM_P2
2021/04/27 00:01:41;;;;;;;12.00;6.82;;;308.10;1715.20;;;;;;5052733;28;20016;-81
2021/04/27 00:04:07;;;;;;;8.60;6.38;;;308.00;1715.20;;;;;;5052787;28;20017;-68
2021/04/27 00:06:33;;;;;;;12.93;6.30;;;308.00;1715.20;;;;;;5052876;28;20017;-78
2021/04/27 00:08:59;;;;;;;12.98;6.90;;;307.90;1715.20;;;;;;5052811;28;20377;-67
2021/04/27 00:11:25;;;;;;;7.90;6.35;;;308.00;1715.20;;;;;;5052777;28;20032;-66
2021/04/27 00:13:51;;;;;;;9.77;6.57;;;307.90;1740.80;;;;;;5055933;28;20393;-67
2021/04/27 00:16:18;;;;;;;11.23;7.00;;;307.90;1740.80;;;;;;5056436;28;20366;-66
2021/04/27 00:18:46;;;;;;;8.75;6.03;;;308.00;1715.20;;;;;;5057142;28;20409;-79
2021/04/27 00:21:13;;;;;;;12.68;8.52;;;308.00;1740.80;;;;;;5056076;28;20445;-68
2021/04/27 00:23:39;;;;;;;11.15;7.57;;;307.90;1766.40;;;;;;5056288;28;20347;-66
2021/04/27 00:26:05;;;;;;;10.88;8.18;;;308.00;1740.80;;;;;;5056195;28;20462;-66
2021/04/27 00:28:31;;;;;;;10.18;6.68;;;308.00;1766.40;;;;;;5056221;28;20393;-80
2021/04/27 00:30:57;;;;;;;11.10;7.18;;;307.90;1792.00;;;;;;5056105;28;20376;-66
2021/04/27 00:33:24;;;;;;;14.60;8.85;;;307.90;1766.40;;;;;;5055990;28;20484;-66
2021/04/27 00:35:50;;;;;;;25.65;11.18;;;307.90;1766.40;;;;;;5055983;28;20064;-79
2021/04/27 00:38:17;;;;;;;18.30;9.65;;;308.00;1740.80;;;;;;5038182;28;20358;-69
2021/04/27 00:40:43;;;;;;;14.90;9.02;;;307.90;1792.00;;;;;;5055897;28;20412;-66
2021/04/27 00:43:09;;;;;;;12.35;7.85;;;307.80;1792.00;;;;;;5055906;28;20415;-66
2021/04/27 00:45:35;;;;;;;16.92;9.20;;;307.80;1817.60;;;;;;5056154;28;20343;-65
2021/04/27 00:48:01;;;;;;;10.95;7.57;;;307.90;1792.00;;;;;;5055854;28;20451;-66
2021/04/27 00:50:31;;;;;;;8.40;6.57;;;307.90;1792.00;;;;;;5055831;28;20373;-66
2021/04/27 00:52:58;;;;;;;8.57;6.88;;;307.80;1843.20;;;;;;5055578;28;20430;-65
2021/04/27 00:55:24;;;;;;;7.80;6.03;;;307.90;1817.60;;;;;;5055689;28;20377;-65
2021/04/27 00:57:51;;;;;;;8.30;6.25;;;307.80;1843.20;;;;;;5055869;28;20369;-65
2021/04/27 01:00:24;;;;;;;9.98;7.00;;;307.70;1843.20;;;;;;5055626;28;20369;-66
2021/04/27 01:02:51;;;;;;;11.13;7.70;;;307.70;1868.80;;;;;;5055816;28;20346;-80
2021/04/27 01:05:21;;;;;;;16.50;6.43;;;307.70;1868.80;;;;;;5055307;28;20422;-67
2021/04/27 01:08:10;;;;;;;7.70;6.32;;;307.70;1843.20;;;;;;5055673;28;20354;-67
2021/04/27 01:11:03;;;;;;;10.15;7.47;;;307.70;1868.80;;;;;;5055962;28;20449;-79
2021/04/27 01:14:17;;;;;;;12.00;7.50;;;307.70;1868.80;;;;;;5055221;28;20416;-65
2021/04/27 01:16:50;;;;;;;22.23;10.85;;;307.70;1868.80;;;;;;5048130;28;20347;-65
2021/04/27 01:19:33;;;;;;;10.00;6.93;;;307.70;1868.80;;;;;;5055229;28;20366;-76
2021/04/27 01:22:00;;;;;;;10.50;6.75;;;307.60;1894.40;;;;;;5054942;28;20393;-65
2021/04/27 01:24:34;;;;;;;9.00;6.75;;;307.60;1868.80;;;;;;5054592;28;20469;-64
2021/04/27 01:27:02;;;;;;;8.18;6.72;;;307.50;1920.00;;;;;;5055454;28;20525;-64
2021/04/27 01:29:32;;;;;;;8.88;6.88;;;307.60;1894.40;;;;;;5055315;28;20369;-64
2021/04/27 01:32:02;;;;;;;9.63;6.97;;;307.60;1894.40;;;;;;5055187;28;20472;-65
2021/04/27 01:34:41;;;;;;;9.07;7.18;;;307.50;1920.00;;;;;;5054951;28;20424;-80
2021/04/27 01:37:09;;;;;;;10.10;7.13;;;307.40;1920.00;;;;;;5054963;28;20416;-66
2021/04/27 01:39:36;;;;;;;12.20;7.05;;;307.60;1894.40;;;;;;5054839;28;20458;-66
2021/04/27 01:42:04;;;;;;;17.10;9.20;;;307.60;1920.00;;;;;;5054832;28;20397;-66
2021/04/27 01:44:33;;;;;;;15.68;9.80;;;307.70;1920.00;;;;;;5054979;28;20408;-66
2021/04/27 01:47:01;;;;;;;40.85;17.33;;;307.70;1894.40;;;;;;5054733;28;20408;-66
2021/04/27 01:49:28;;;;;;;35.90;15.55;;;307.80;1868.80;;;;;;5054958;28;20394;-66
2021/04/27 01:51:54;;;;;;;27.98;13.70;;;307.70;1920.00;;;;;;5054532;28;20339;-66
2021/04/27 01:54:26;;;;;;;14.05;8.85;;;307.60;1920.00;;;;;;5054513;28;20426;-66
2021/04/27 01:56:52;;;;;;;11.00;7.90;;;307.70;1894.40;;;;;;5054596;28;20365;-66
2021/04/27 01:59:19;;;;;;;9.35;7.10;;;307.70;1894.40;;;;;;5054525;28;20485;-66
2021/04/27 02:01:46;;;;;;;10.00;7.40;;;307.70;1894.40;;;;;;5054489;28;20092;-65
2021/04/27 02:04:19;;;;;;;11.50;7.20;;;307.70;1894.40;;;;;;5054316;28;20531;-65
2021/04/27 02:06:45;;;;;;;8.38;6.78;;;307.60;1920.00;;;;;;5054433;28;20361;-66
2021/04/27 02:09:14;;;;;;;10.15;7.55;;;307.70;1894.40;;;;;;5054327;28;20476;-65
2021/04/27 02:11:47;;;;;;;16.98;9.77;;;307.70;1894.40;;;;;;5054210;28;20465;-65
2021/04/27 02:14:14;;;;;;;12.65;8.57;;;307.70;1894.40;;;;;;5054260;28;20411;-66
2021/04/27 02:17:02;;;;;;;10.35;7.38;;;307.70;1894.40;;;;;;5054388;28;20354;-66
2021/04/27 02:19:30;;;;;;;10.75;8.18;;;307.60;1894.40;;;;;;5054196;28;20369;-66
2021/04/27 02:22:00;;;;;;;9.80;7.65;;;307.60;1920.00;;;;;;5053859;28;20410;-66
2021/04/27 02:24:27;;;;;;;13.25;8.07;;;307.60;1920.00;;;;;;5054019;28;20481;-66
2021/04/27 02:26:54;;;;;;;10.65;8.57;;;307.60;1894.40;;;;;;5054000;28;20551;-66
2021/04/27 02:29:21;;;;;;;10.45;8.13;;;307.60;1920.00;;;;;;5053873;28;20378;-66
2021/04/27 02:31:47;;;;;;;10.73;8.20;;;307.60;1920.00;;;;;;5053742;28;20469;-66
2021/04/27 02:34:14;;;;;;;9.70;8.00;;;307.60;1920.00;;;;;;5053867;28;20468;-65
2021/04/27 02:36:41;;;;;;;11.00;8.30;;;307.60;1894.40;;;;;;5052941;28;20024;-66
2021/04/27 02:39:11;;;;;;;9.68;8.15;;;307.50;1920.00;;;;;;5053799;28;20584;-67
2021/04/27 02:41:38;;;;;;;12.88;8.70;;;307.50;1920.00;;;;;;5053672;28;20543;-66
2021/04/27 02:44:08;;;;;;;13.57;8.55;;;307.60;1920.00;;;;;;5053921;28;20370;-66
2021/04/27 02:46:35;;;;;;;13.95;8.90;;;307.50;1920.00;;;;;;5053656;28;20453;-66
2021/04/27 02:49:02;;;;;;;10.55;8.60;;;307.40;1945.60;;;;;;5053556;28;20397;-65
2021/04/27 02:51:28;;;;;;;10.93;9.50;;;307.40;1945.60;;;;;;5053550;28;20355;-66
2021/04/27 02:53:54;;;;;;;11.13;9.23;;;307.50;1945.60;;;;;;5053591;28;20365;-66
2021/04/27 02:56:21;;;;;;;12.60;8.93;;;307.50;1945.60;;;;;;5053585;28;20461;-66
2021/04/27 02:58:47;;;;;;;14.30;9.77;;;307.50;1945.60;;;;;;5053552;28;20476;-66
2021/04/27 03:01:14;;;;;;;13.80;9.93;;;307.40;1945.60;;;;;;5053579;28;20381;-66
2021/04/27 03:03:41;;;;;;;14.48;10.13;;;307.40;1945.60;;;;;;5053457;28;20404;-66
2021/04/27 03:06:07;;;;;;;13.95;9.52;;;307.40;1945.60;;;;;;5053371;28;20453;-66
2021/04/27 03:08:34;;;;;;;12.18;8.90;;;307.40;1971.20;;;;;;5053362;28;20393;-65
2021/04/27 03:11:00;;;;;;;12.57;9.07;;;307.40;1971.20;;;;;;5053375;28;20497;-66
2021/04/27 03:13:27;;;;;;;13.65;9.52;;;307.40;1945.60;;;;;;5053250;28;20367;-65
2021/04/27 03:15:53;;;;;;;10.65;8.68;;;307.40;1971.20;;;;;;5053270;28;20347;-66
2021/04/27 03:18:20;;;;;;;11.48;8.40;;;307.30;1945.60;;;;;;5053319;28;20408;-66
2021/04/27 03:20:46;;;;;;;12.80;9.18;;;307.30;1945.60;;;;;;5053239;28;20347;-66
2021/04/27 03:23:13;;;;;;;12.38;8.93;;;307.30;1945.60;;;;;;5053001;28;20483;-66
2021/04/27 03:25:40;;;;;;;12.57;8.85;;;307.30;1971.20;;;;;;5053144;28;20373;-65
2021/04/27 03:28:08;;;;;;;14.93;9.95;;;307.30;1971.20;;;;;;5053130;28;20469;-66
2021/04/27 03:30:35;;;;;;;18.35;10.55;;;307.30;1971.20;;;;;;5053261;28;20024;-66
2021/04/27 03:33:03;;;;;;;12.60;10.27;;;307.30;1971.20;;;;;;5053148;28;20473;-66
2021/04/27 03:35:29;;;;;;;14.35;9.52;;;307.30;1971.20;;;;;;5053219;28;20454;-66
2021/04/27 03:37:56;;;;;;;15.63;10.98;;;307.20;1971.20;;;;;;5053161;28;20031;-66
2021/04/27 03:40:22;;;;;;;14.30;9.77;;;307.20;1996.80;;;;;;5053159;28;20404;-66
2021/04/27 03:42:48;;;;;;;15.40;10.57;;;307.20;1996.80;;;;;;5053107;28;20422;-66
2021/04/27 03:45:19;;;;;;;13.77;10.05;;;307.20;1996.80;;;;;;5053128;28;20393;-66
2021/04/27 03:47:46;;;;;;;17.08;11.20;;;307.30;1996.80;;;;;;5055061;28;20419;-66
2021/04/27 03:50:19;;;;;;;12.88;10.23;;;307.30;1996.80;;;;;;5056948;28;20358;-66
2021/04/27 03:52:45;;;;;;;13.45;10.20;;;307.30;1996.80;;;;;;5039155;28;20429;-66
2021/04/27 03:55:12;;;;;;;15.63;10.45;;;307.30;1971.20;;;;;;5056907;28;20358;-65
2021/04/27 03:57:38;;;;;;;14.90;10.25;;;307.30;1996.80;;;;;;5057424;28;20377;-66
2021/04/27 04:00:08;;;;;;;12.63;9.63;;;307.30;1971.20;;;;;;5056814;28;20417;-66
2021/04/27 04:02:34;;;;;;;16.10;10.98;;;307.30;1996.80;;;;;;5056815;28;20386;-66
2021/04/27 04:05:00;;;;;;;13.30;10.55;;;307.30;1996.80;;;;;;5056623;28;20370;-66
2021/04/27 04:07:27;;;;;;;15.60;11.02;;;307.30;1996.80;;;;;;5056609;28;20376;-66
2021/04/27 04:09:53;;;;;;;13.15;10.18;;;307.20;1996.80;;;;;;5056576;28;20450;-66
2021/04/27 04:12:19;;;;;;;14.23;11.20;;;307.30;1971.20;;;;;;5056464;28;20369;-66
2021/04/27 04:14:45;;;;;;;13.82;10.65;;;307.40;1971.20;;;;;;5056468;28;20370;-66
2021/04/27 04:17:11;;;;;;;19.60;12.10;;;307.30;1996.80;;;;;;5056663;28;20428;-66
2021/04/27 04:19:38;;;;;;;17.17;11.23;;;307.30;1996.80;;;;;;5056360;28;20059;-66
2021/04/27 04:22:05;;;;;;;16.05;11.25;;;307.40;1996.80;;;;;;5056319;28;20490;-66
2021/04/27 04:24:32;;;;;;;16.40;10.60;;;307.30;2022.40;;;;;;5056226;28;20347;-66
2021/04/27 04:26:59;;;;;;;29.42;22.77;;;307.30;1996.80;;;;;;5056491;28;20473;-66
2021/04/27 04:29:27;;;;;;;61.22;40.05;;;307.30;1996.80;;;;;;5056449;28;20366;-66
2021/04/27 04:31:53;;;;;;;61.22;39.95;;;307.30;1996.80;;;;;;5056102;28;20421;-65
2021/04/27 04:34:20;;;;;;;39.97;26.05;;;307.30;1996.80;;;;;;5056129;28;20458;-66
2021/04/27 04:36:48;;;;;;;45.13;30.83;;;307.20;2022.40;;;;;;5056118;28;20346;-65
2021/04/27 04:39:14;;;;;;;39.95;27.65;;;307.30;1996.80;;;;;;5055997;28;20397;-80
2021/04/27 04:41:40;;;;;;;31.33;23.02;;;307.30;1996.80;;;;;;5056062;28;20370;-66
2021/04/27 04:44:07;;;;;;;23.27;16.40;;;307.30;1996.80;;;;;;5055900;28;20437;-66
2021/04/27 04:46:33;;;;;;;16.40;12.68;;;307.30;1996.80;;;;;;5055958;28;20445;-66
2021/04/27 04:49:00;;;;;;;17.75;11.95;;;307.30;1996.80;;;;;;5055831;28;20454;-66
2021/04/27 04:51:26;;;;;;;15.43;10.50;;;307.40;1996.80;;;;;;5055859;28;20370;-66
2021/04/27 04:53:53;;;;;;;17.52;11.43;;;307.40;1996.80;;;;;;5055925;28;20359;-79
2021/04/27 04:56:20;;;;;;;16.05;10.65;;;307.40;1996.80;;;;;;5055742;28;20421;-66
2021/04/27 04:58:46;;;;;;;16.63;11.73;;;307.40;1996.80;;;;;;5054806;28;20351;-66
2021/04/27 05:01:12;;;;;;;22.33;14.57;;;307.30;1996.80;;;;;;5047489;28;20456;-66
2021/04/27 05:03:40;;;;;;;21.70;13.77;;;307.30;2022.40;;;;;;5055557;28;20412;-65
2021/04/27 05:06:11;;;;;;;19.70;13.43;;;307.30;2048.00;;;;;;5055540;28;20481;-65
2021/04/27 05:08:46;;;;;;;17.08;13.40;;;307.30;2073.60;;;;;;5055500;28;20412;-65
2021/04/27 05:11:12;;;;;;;21.88;14.70;;;307.30;2073.60;;;;;;5056020;28;20480;-66
2021/04/27 05:13:39;;;;;;;21.77;15.45;;;307.30;2048.00;;;;;;5055371;28;20438;-65
2021/04/27 05:16:07;;;;;;;20.80;13.95;;;307.40;2048.00;;;;;;5055580;28;20434;-65
2021/04/27 05:18:34;;;;;;;19.27;13.63;;;307.40;2048.00;;;;;;5055413;28;20472;-65
2021/04/27 05:21:00;;;;;;;18.40;13.63;;;307.30;2048.00;;;;;;5055193;28;20055;-65
2021/04/27 05:23:26;;;;;;;27.25;18.98;;;307.30;2048.00;;;;;;5055089;28;20393;-65
2021/04/27 05:25:53;;;;;;;32.40;21.65;;;307.40;2048.00;;;;;;5055140;28;20346;-65
2021/04/27 05:28:19;;;;;;;23.95;16.65;;;307.40;2048.00;;;;;;5055157;28;20416;-65
2021/04/27 05:30:45;;;;;;;18.92;12.73;;;307.40;2073.60;;;;;;5055027;28;20446;-65
2021/04/27 05:33:12;;;;;;;16.55;11.63;;;307.40;2073.60;;;;;;5054906;28;20377;-65
2021/04/27 05:35:41;;;;;;;14.30;11.48;;;307.40;2073.60;;;;;;5055035;28;20354;-65
2021/04/27 05:38:08;;;;;;;16.55;12.40;;;307.40;2073.60;;;;;;5054945;28;20480;-65
2021/04/27 05:40:35;;;;;;;19.23;13.73;;;307.40;2048.00;;;;;;5054890;28;20450;-65
2021/04/27 05:43:02;;;;;;;21.52;13.85;;;307.40;2073.60;;;;;;5055111;28;20410;-81
2021/04/27 05:45:28;;;;;;;19.17;13.65;;;307.40;2073.60;;;;;;5054770;28;20400;-65
2021/04/27 05:47:54;;;;;;;14.30;11.77;;;307.40;2073.60;;;;;;5036884;28;20017;-64
2021/04/27 05:50:20;;;;;;;13.05;11.32;;;307.40;2048.00;;;;;;5054610;28;20388;-65
2021/04/27 05:52:47;;;;;;;16.20;13.45;;;307.40;2048.00;;;;;;5054588;28;20416;-65
2021/04/27 05:55:13;;;;;;;18.85;13.80;;;307.40;2073.60;;;;;;5054617;28;20389;-65
2021/04/27 05:57:40;;;;;;;19.45;12.98;;;307.40;2073.60;;;;;;5054476;28;20426;-65
2021/04/27 06:00:07;;;;;;;16.13;12.57;;;307.40;2099.20;;;;;;5054573;28;20343;-65
2021/04/27 06:02:33;;;;;;;15.77;10.65;;;307.40;2073.60;;;;;;5054621;28;20428;-65
2021/04/27 06:04:59;;;;;;;16.10;11.02;;;307.50;2048.00;;;;;;5054389;28;20365;-65
2021/04/27 06:07:25;;;;;;;15.13;11.02;;;307.50;2073.60;;;;;;5054248;28;20525;-65
2021/04/27 06:13:13;;;;;;;14.00;11.43;;;307.50;2073.60;;;;;;5054507;28;20497;-64
2021/04/27 06:15:40;;;;;;;13.35;10.73;;;307.40;2048.00;;;;;;5054507;28;20406;-67
2021/04/27 06:18:06;;;;;;;16.85;12.20;;;307.50;2073.60;;;;;;5054086;28;20420;-65
2021/04/27 06:20:32;;;;;;;12.27;10.95;;;307.50;2073.60;;;;;;5053992;28;20401;-80
2021/04/27 06:22:59;;;;;;;16.38;12.43;;;307.50;2073.60;;;;;;5038829;28;20471;-80
2021/04/27 06:25:25;;;;;;;13.63;10.55;;;307.50;2048.00;;;;;;5033979;28;20070;-70
2021/04/27 06:27:51;;;;;;;15.68;11.23;;;307.40;2048.00;;;;;;5034005;28;20425;-70
2021/04/27 06:30:18;;;;;;;14.52;11.30;;;307.40;2073.60;;;;;;5034135;28;20430;-69
2021/04/27 06:32:47;;;;;;;14.75;11.35;;;307.40;2073.60;;;;;;5033983;28;20459;-70
2021/04/27 06:35:14;;;;;;;15.45;11.95;;;307.40;2099.20;;;;;;5033823;28;20370;-67
2021/04/27 06:37:40;;;;;;;17.52;11.82;;;307.50;2073.60;;;;;;5033989;28;20396;-65
2021/04/27 06:40:07;;;;;;;16.05;11.35;;;307.50;2048.00;;;;;;5033815;28;20429;-75
2021/04/27 06:42:33;;;;;;;18.95;12.68;;;307.50;2048.00;;;;;;5033527;28;20359;-80
2021/04/27 06:44:59;;;;;;;19.98;14.35;;;307.50;2073.60;;;;;;5033951;28;20365;-66
2021/04/27 06:47:25;;;;;;;20.48;16.23;;;307.60;2073.60;;;;;;5033718;28;20463;-66
2021/04/27 06:49:54;;;;;;;25.95;17.13;;;307.60;2048.00;;;;;;5033566;28;20351;-65
2021/04/27 06:52:20;;;;;;;31.10;21.95;;;307.50;2099.20;;;;;;5033911;28;20373;-65
2021/04/27 06:54:46;;;;;;;23.08;14.52;;;307.50;2073.60;;;;;;5034191;28;20358;-65
2021/04/27 06:57:12;;;;;;;21.88;14.70;;;307.60;2022.40;;;;;;5034229;28;20460;-65
2021/04/27 06:59:38;;;;;;;38.45;22.05;;;307.50;2022.40;;;;;;5033652;28;20105;-65
2021/04/27 07:02:05;;;;;;;25.52;17.60;;;307.60;2022.40;;;;;;5033933;28;20350;-65
2021/04/27 07:04:33;;;;;;;33.95;25.20;;;307.60;2022.40;;;;;;5033548;28;20369;-65
2021/04/27 07:07:00;;;;;;;56.83;34.22;;;307.70;2022.40;;;;;;5033613;28;20458;-65
2021/04/27 07:09:26;;;;;;;33.28;21.67;;;307.60;2048.00;;;;;;5033519;28;20032;-65
2021/04/27 07:11:52;;;;;;;62.28;39.80;;;307.60;2022.40;;;;;;5033594;28;20389;-65
2021/04/27 07:14:18;;;;;;;52.55;31.15;;;307.60;2048.00;;;;;;5033361;28;20385;-64
2021/04/27 07:16:44;;;;;;;27.60;18.98;;;307.70;2022.40;;;;;;5033466;28;20448;-65
2021/04/27 07:19:10;;;;;;;18.45;11.98;;;307.70;2048.00;;;;;;5033312;28;20370;-64
2021/04/27 07:21:37;;;;;;;16.15;11.35;;;307.70;2022.40;;;;;;5033618;28;20462;-77
2021/04/27 07:24:04;;;;;;;15.38;11.93;;;307.70;2022.40;;;;;;5036975;28;20437;-65
2021/04/27 07:26:30;;;;;;;25.25;16.70;;;307.80;1996.80;;;;;;5037416;28;20428;-65
2021/04/27 07:28:58;;;;;;;21.33;15.13;;;307.80;1996.80;;;;;;5037359;28;20417;-67
2021/04/27 07:31:24;;;;;;;20.83;15.30;;;307.70;2022.40;;;;;;5037465;28;20367;-66
2021/04/27 07:33:50;;;;;;;30.40;19.75;;;307.80;2022.40;;;;;;5037009;28;20470;-80
2021/04/27 07:36:18;;;;;;;113.78;49.53;;;307.80;1996.80;;;;;;5036995;28;20123;-74
2021/04/27 07:38:44;;;;;;;110.25;44.08;;;307.80;1996.80;;;;;;5037190;28;20450;-66
2021/04/27 07:41:11;;;;;;;33.47;17.80;;;307.90;1971.20;;;;;;5036989;28;20390;-66
2021/04/27 07:43:37;;;;;;;17.38;13.40;;;307.90;1996.80;;;;;;5037012;28;20378;-66
2021/04/27 07:46:03;;;;;;;65.75;29.42;;;307.80;1996.80;;;;;;5036984;28;20449;-78
2021/04/27 07:48:30;;;;;;;38.42;23.65;;;307.90;1971.20;;;;;;5037195;28;20417;-80
2021/04/27 07:50:56;;;;;;;24.13;18.00;;;307.90;1996.80;;;;;;5036976;28;20374;-79
2021/04/27 07:53:22;;;;;;;30.73;19.23;;;307.90;1996.80;;;;;;5036946;28;20347;-82
2021/04/27 07:55:49;;;;;;;40.88;24.83;;;308.00;1945.60;;;;;;5036788;28;20377;-81
2021/04/27 07:58:15;;;;;;;45.05;26.38;;;308.00;1971.20;;;;;;5036693;28;20422;-79
2021/04/27 08:00:42;;;;;;;59.13;32.53;;;307.90;2022.40;;;;;;5036740;28;20434;-80
2021/04/27 08:03:08;;;;;;;23.00;16.55;;;308.00;1996.80;;;;;;5036965;28;20512;-81
2021/04/27 08:05:35;;;;;;;73.10;32.58;;;308.10;1971.20;;;;;;5037395;28;20438;-81
2021/04/27 08:08:01;;;;;;;21.90;16.20;;;308.10;1996.80;;;;;;5036797;28;20438;-81
2021/04/27 08:10:27;;;;;;;21.17;14.73;;;308.00;1996.80;;;;;;5036930;28;20370;-79
2021/04/27 08:12:54;;;;;;;20.23;14.52;;;308.00;1996.80;;;;;;5018687;28;20428;-81
2021/04/27 08:15:26;;;;;;;22.73;14.98;;;308.10;1971.20;;;;;;5036692;28;20060;-76
2021/04/27 08:17:53;;;;;;;18.55;12.27;;;308.10;1996.80;;;;;;5036179;28;20365;-80
2021/04/27 08:20:20;;;;;;;18.42;13.05;;;308.00;1971.20;;;;;;5036561;28;20366;-81
2021/04/27 08:22:47;;;;;;;14.90;12.02;;;308.00;1945.60;;;;;;5036201;28;20057;-78
2021/04/27 08:25:15;;;;;;;17.45;12.90;;;308.00;1971.20;;;;;;5036484;28;20380;-82
2021/04/27 08:27:43;;;;;;;18.83;13.18;;;308.00;1971.20;;;;;;5037238;28;20395;-81
2021/04/27 08:30:10;;;;;;;15.15;12.43;;;308.00;1945.60;;;;;;5036314;28;20040;-80
2021/04/27 08:32:37;;;;;;;21.85;15.90;;;308.00;1971.20;;;;;;5036171;28;20429;-80
2021/04/27 08:35:04;;;;;;;20.75;14.68;;;308.00;1971.20;;;;;;5035240;28;20335;-76
2021/04/27 08:37:31;;;;;;;40.47;29.23;;;308.00;1996.80;;;;;;5036594;28;20477;-81
2021/04/27 08:39:58;;;;;;;20.80;14.70;;;308.00;1996.80;;;;;;5036203;28;20378;-81
2021/04/27 08:42:25;;;;;;;18.98;13.45;;;308.10;1971.20;;;;;;5036090;28;20408;-80
2021/04/27 08:44:52;;;;;;;15.45;12.52;;;332.80;1996.80;;;;;;5036231;28;20366;-83
2021/04/27 08:47:22;;;;;;;16.83;12.82;;;308.10;1971.20;;;;;;5036278;28;20410;-79
2021/04/27 08:49:48;;;;;;;26.83;18.58;;;332.80;1996.80;;;;;;5018194;28;20462;-79
2021/04/27 08:52:15;;;;;;;32.50;22.05;;;332.80;1996.80;;;;;;5036039;28;20382;-80
2021/04/27 08:54:41;;;;;;;21.55;15.05;;;332.80;1996.80;;;;;;5035872;28;20355;-80
2021/04/27 08:57:07;;;;;;;35.65;20.88;;;332.90;1996.80;;;;;;5036014;28;20481;-80
2021/04/27 08:59:34;;;;;;;26.88;18.85;;;332.90;1971.20;;;;;;5035869;28;20374;-80
2021/04/27 09:02:00;;;;;;;19.90;15.40;;;332.90;1996.80;;;;;;5035833;28;20362;-81
2021/04/27 09:04:42;;;;;;;303.73;150.77;;;332.90;1996.80;;;;;;5035529;28;20029;-80
2021/04/27 09:07:19;;;;;;;41.47;28.55;;;332.90;1971.20;;;;;;5035624;28;20402;-79
2021/04/27 09:09:57;;;;;;;28.23;21.35;;;332.90;1996.80;;;;;;5035930;28;20450;-79
2021/04/27 09:12:28;;;;;;;34.70;24.58;;;332.90;1996.80;;;;;;5035506;28;20465;-79
2021/04/27 09:14:56;;;;;;;47.17;35.08;;;332.90;1971.20;;;;;;5036049;28;20017;-80
2021/04/27 09:17:30;;;;;;;30.90;22.60;;;333.00;1971.20;;;;;;5035366;28;20533;-78
2021/04/27 09:19:57;;;;;;;;;;;333.00;1971.20;;;;;;5035812;28;20426;-80
2021/04/27 09:22:25;;;;;;;20.77;15.50;;;333.00;1971.20;;;;;;5035258;28;20282;-80
2021/04/27 09:24:58;;;;;;;24.83;17.10;;;332.90;1971.20;;;;;;5035290;28;20363;-80
2021/04/27 09:27:25;;;;;;;64.20;39.57;;;333.00;1996.80;;;;;;5018888;28;20021;-80
2021/04/27 09:29:52;;;;;;;40.28;28.20;;;333.10;1971.20;;;;;;5035147;28;20747;-79
2021/04/27 09:32:33;;;;;;;119.40;98.13;;;333.10;1996.80;;;;;;5035661;28;20517;-78
2021/04/27 09:35:40;;;;;;;28.38;21.70;;;333.10;1971.20;;;;;;5035063;28;20362;-79
2021/04/27 09:38:17;;;;;;;27.70;20.17;;;333.10;1996.80;;;;;;5035319;28;20393;-79
2021/04/27 09:40:45;;;;;;;27.73;20.23;;;333.20;1996.80;;;;;;5035017;28;20473;-80
2021/04/27 09:43:12;;;;;;;81.10;59.42;;;333.10;1996.80;;;;;;5035085;28;20429;-73
2021/04/27 09:45:43;;;;;;;24.65;20.38;;;333.20;1971.20;;;;;;5034365;28;20343;-79
2021/04/27 09:48:09;;;;;;;24.98;18.38;;;333.20;1996.80;;;;;;5034861;28;20366;-79
2021/04/27 09:50:37;;;;;;;26.52;19.42;;;333.30;1971.20;;;;;;5034868;28;20374;-80
2021/04/27 09:53:05;;;;;;;27.10;18.90;;;333.20;1971.20;;;;;;5034803;28;20377;-80
2021/04/27 09:55:33;;;;;;;38.72;27.95;;;333.20;1971.20;;;;;;5034858;28;20463;-80
2021/04/27 09:58:00;;;;;;;22.92;18.20;;;333.20;1971.20;;;;;;5034933;28;20021;-81
2021/04/27 10:00:29;;;;;;;24.95;17.17;;;333.20;1971.20;;;;;;5034968;28;20379;-78
2021/04/27 10:03:01;;;;;;;27.17;18.58;;;333.20;1971.20;;;;;;5016833;28;20439;-79
2021/04/27 10:05:27;;;;;;;36.33;22.30;;;333.20;1996.80;;;;;;5034434;28;20378;-77
2021/04/27 10:07:57;;;;;;;39.45;26.10;;;333.30;1971.20;;;;;;5034289;28;20476;-79
2021/04/27 10:10:26;;;;;;;42.75;25.15;;;333.40;1996.80;;;;;;5035152;28;20435;-66
2021/04/27 10:12:53;;;;;;;51.85;34.38;;;333.20;1996.80;;;;;;5034044;28;20482;-78
2021/04/27 10:15:19;;;;;;;65.28;41.30;;;333.20;2022.40;;;;;;5034231;28;20378;-73
2021/04/27 10:17:45;;;;;;;35.72;26.45;;;333.20;2022.40;;;;;;5034644;28;20335;-76
2021/04/27 10:20:13;;;;;;;35.28;22.42;;;333.30;2048.00;;;;;;5034879;28;20496;-75
2021/04/27 10:22:45;;;;;;;30.30;19.75;;;333.40;2022.40;;;;;;5033988;28;20410;-74
2021/04/27 10:25:32;;;;;;;62.38;35.50;;;333.40;2022.40;;;;;;5017145;28;20371;-76
2021/04/27 10:28:01;;;;;;;29.83;19.15;;;333.50;2022.40;;;;;;5033617;28;20389;-77
2021/04/27 10:30:35;;;;;;;35.72;22.33;;;333.50;1996.80;;;;;;5033897;28;20351;-74
2021/04/27 10:33:01;;;;;;;27.27;17.48;;;333.60;2022.40;;;;;;5016248;28;20374;-79
2021/04/27 10:35:32;;;;;;;24.58;19.48;;;333.60;1945.60;;;;;;5033843;28;20029;-69
2021/04/27 10:38:18;;;;;;;25.88;20.98;;;333.70;1971.20;;;;;;5033694;28;20461;-77
2021/04/27 10:40:47;;;;;;;21.55;17.58;;;333.70;1971.20;;;;;;5033749;28;20487;-76
2021/04/27 10:43:35;;;;;;;24.17;17.88;;;333.70;1971.20;;;;;;5034569;28;20534;-63
2021/04/27 10:46:03;;;;;;;25.98;19.33;;;333.60;1971.20;;;;;;5033718;28;20462;-65
2021/04/27 10:48:30;;;;;;;24.77;17.65;;;333.60;1996.80;;;;;;5033696;28;20491;-76
2021/04/27 10:50:59;;;;;;;29.67;23.35;;;333.70;1971.20;;;;;;5033862;28;20339;-75
2021/04/27 10:53:34;;;;;;;22.98;16.40;;;358.40;1971.20;;;;;;5034296;28;20463;-77
2021/04/27 10:56:01;;;;;;;24.48;15.63;;;358.40;1920.00;;;;;;5034917;28;20448;-62
2021/04/27 10:58:46;;;;;;;20.05;16.30;;;333.60;1894.40;;;;;;5033282;28;20393;-64
2021/04/27 11:01:28;;;;;;;36.60;24.73;;;333.60;1868.80;;;;;;5033732;28;20459;-75
2021/04/27 11:03:56;;;;;;;47.88;33.35;;;333.60;1894.40;;;;;;5033532;28;20347;-66
2021/04/27 11:06:23;;;;;;;34.13;26.45;;;333.70;1920.00;;;;;;5033546;28;20382;-64
2021/04/27 11:09:14;;;;;;;80.30;58.08;;;333.70;1894.40;;;;;;5033505;28;20423;-63
2021/04/27 11:11:41;;;;;;;124.53;88.13;;;333.60;1894.40;;;;;;5033474;28;20424;-72
2021/04/27 11:14:23;;;;;;;144.65;102.45;;;333.60;1894.40;;;;;;5033323;28;20410;-64
2021/04/27 11:16:54;;;;;;;197.27;126.65;;;333.60;1868.80;;;;;;5033267;28;20370;-67
2021/04/27 11:19:23;;;;;;;85.78;54.20;;;333.60;1868.80;;;;;;5033357;28;20466;-63
2021/04/27 11:21:51;;;;;;;116.15;62.05;;;333.70;1868.80;;;;;;5033173;28;20073;-63
2021/04/27 11:24:35;;;;;;;268.27;118.88;;;333.60;1868.80;;;;;;5033252;28;20381;-64
2021/04/27 11:27:02;;;;;;;394.17;170.43;;;333.60;1868.80;;;;;;5033488;28;20443;-63
2021/04/27 11:29:30;;;;;;;283.88;126.03;;;333.60;1894.40;;;;;;5033316;28;20476;-74
2021/04/27 11:31:59;;;;;;;214.23;95.03;;;333.70;1894.40;;;;;;5033131;28;20343;-78
2021/04/27 11:34:26;;;;;;;506.65;225.10;;;333.70;1868.80;;;;;;5033135;28;20466;-63
2021/04/27 11:36:53;;;;;;;498.15;210.27;;;333.70;1868.80;;;;;;5033524;28;20370;-63
2021/04/27 11:39:21;;;;;;;549.67;228.55;;;333.60;1843.20;;;;;;5033137;28;20033;-63
2021/04/27 11:41:53;;;;;;;473.23;193.95;;;333.50;1792.00;;;;;;5033684;28;20348;-73
2021/04/27 11:44:21;;;;;;;437.00;174.65;;;333.50;1868.80;;;;;;5033196;28;20426;-66
2021/04/27 11:47:06;;;;;;;605.25;252.98;;;333.50;1843.20;;;;;;5033068;28;20394;-75
2021/04/27 11:49:49;;;;;;;665.72;296.58;;;333.40;1817.60;;;;;;5032922;28;20382;-68
2021/04/27 11:52:36;;;;;;;475.08;197.57;;;333.40;1817.60;;;;;;5033053;28;20462;-62
2021/04/27 11:55:27;;;;;;;415.60;173.65;;;333.50;1843.20;;;;;;5032124;28;20549;-69
2021/04/27 11:58:01;;;;;;;481.48;181.38;;;333.60;1843.20;;;;;;5032591;28;20445;-65
2021/04/27 12:00:38;;;;;;;512.85;228.82;;;333.60;1817.60;;;;;;5032814;28;20501;-62
2021/04/27 12:03:15;;;;;;;354.70;152.30;;;333.60;1843.20;;;;;;5032730;28;20368;-76
2021/04/27 12:05:41;;;;;;;346.38;137.00;;;333.60;1817.60;;;;;;5032842;28;20379;-72
2021/04/27 12:08:22;;;;;;;417.67;158.93;;;333.50;1792.00;;;;;;5015362;28;20390;-64
2021/04/27 12:11:04;;;;;;;359.90;139.27;;;333.50;1843.20;;;;;;5036548;28;20366;-61
2021/04/27 12:13:31;;;;;;;389.30;132.85;;;333.60;1817.60;;;;;;5036528;28;20378;-76